sensor_id;sensor_type;location;lat;lon;timestamp;P1;durP1;ratioP1;P2;durP2;ratioP2
55469;SDS011;41334;47.872;16.384;2023-06-14T00:03:25;5.25;;;2.47;;
55469;SDS011;41334;47.872;16.384;2023-06-14T00:08:27;3.80;;;2.47;;
55469;SDS011;41334;47.872;16.384;2023-06-14T00:13:29;3.63;;;2.33;;
55469;SDS011;41334;47.872;16.384;2023-06-14T00:18:31;3.58;;;1.98;;
55469;SDS011;41334;47.872;16.384;2023-06-14T00:23:33;5.18;;;2.30;;
55469;SDS011;41334;47.872;16.384;2023-06-14T00:28:35;5.35;;;2.47;;
55469;SDS011;41334;47.872;16.384;2023-06-14T00:33:36;5.43;;;2.80;;
55469;SDS011;41334;47.872;16.384;2023-06-14T00:38:39;9.57;;;3.17;;
55469;SDS011;41334;47.872;16.384;2023-06-14T00:43:42;4.35;;;2.40;;
55469;SDS011;41334;47.872;16.384;2023-06-14T00:48:45;9.02;;;2.88;;
55469;SDS011;41334;47.872;16.384;2023-06-14T00:53:47;4.82;;;2.95;;
55469;SDS011;41334;47.872;16.384;2023-06-14T00:58:50;5.68;;;2.53;;
55469;SDS011;41334;47.872;16.384;2023-06-14T01:03:53;4.85;;;2.47;;
55469;SDS011;41334;47.872;16.384;2023-06-14T01:09:15;7.78;;;2.63;;
55469;SDS011;41334;47.872;16.384;2023-06-14T01:14:18;5.68;;;2.40;;
55469;SDS011;41334;47.872;16.384;2023-06-14T01:19:22;4.00;;;2.28;;
55469;SDS011;41334;47.872;16.384;2023-06-14T01:24:27;4.85;;;2.83;;
55469;SDS011;41334;47.872;16.384;2023-06-14T01:29:34;4.97;;;2.30;;
55469;SDS011;41334;47.872;16.384;2023-06-14T01:34:37;5.38;;;2.28;;
55469;SDS011;41334;47.872;16.384;2023-06-14T01:39:39;5.75;;;2.80;;
55469;SDS011;41334;47.872;16.384;2023-06-14T01:44:42;7.50;;;2.67;;
55469;SDS011;41334;47.872;16.384;2023-06-14T01:49:45;3.85;;;1.88;;
55469;SDS011;41334;47.872;16.384;2023-06-14T01:54:48;4.93;;;2.30;;
55469;SDS011;41334;47.872;16.384;2023-06-14T01:59:51;5.25;;;2.13;;
55469;SDS011;41334;47.872;16.384;2023-06-14T02:04:53;6.68;;;2.72;;
55469;SDS011;41334;47.872;16.384;2023-06-14T02:09:59;3.17;;;2.10;;
55469;SDS011;41334;47.872;16.384;2023-06-14T02:15:01;5.90;;;2.55;;
55469;SDS011;41334;47.872;16.384;2023-06-14T02:20:03;4.10;;;2.45;;
55469;SDS011;41334;47.872;16.384;2023-06-14T02:25:06;8.10;;;2.25;;
55469;SDS011;41334;47.872;16.384;2023-06-14T02:30:09;4.35;;;2.10;;
55469;SDS011;41334;47.872;16.384;2023-06-14T02:35:11;6.65;;;2.35;;
55469;SDS011;41334;47.872;16.384;2023-06-14T02:40:12;6.88;;;2.78;;
55469;SDS011;41334;47.872;16.384;2023-06-14T02:45:15;6.13;;;2.15;;
55469;SDS011;41334;47.872;16.384;2023-06-14T02:50:16;4.32;;;2.17;;
55469;SDS011;41334;47.872;16.384;2023-06-14T02:55:19;3.97;;;2.13;;
55469;SDS011;41334;47.872;16.384;2023-06-14T03:00:21;3.95;;;2.08;;
55469;SDS011;41334;47.872;16.384;2023-06-14T03:05:25;3.35;;;1.80;;
55469;SDS011;41334;47.872;16.384;2023-06-14T03:10:30;4.05;;;2.05;;
55469;SDS011;41334;47.872;16.384;2023-06-14T03:15:33;3.97;;;2.10;;
55469;SDS011;41334;47.872;16.384;2023-06-14T03:20:36;3.65;;;2.00;;
55469;SDS011;41334;47.872;16.384;2023-06-14T03:25:38;4.43;;;2.30;;
55469;SDS011;41334;47.872;16.384;2023-06-14T03:30:44;3.92;;;2.40;;
55469;SDS011;41334;47.872;16.384;2023-06-14T03:35:48;4.75;;;2.40;;
55469;SDS011;41334;47.872;16.384;2023-06-14T03:40:51;4.50;;;1.98;;
55469;SDS011;41334;47.872;16.384;2023-06-14T03:45:53;3.97;;;2.20;;
55469;SDS011;41334;47.872;16.384;2023-06-14T03:50:57;8.77;;;2.80;;
55469;SDS011;41334;47.872;16.384;2023-06-14T03:56:03;5.18;;;2.20;;
55469;SDS011;41334;47.872;16.384;2023-06-14T04:01:13;8.40;;;2.40;;
55469;SDS011;41334;47.872;16.384;2023-06-14T04:06:15;10.57;;;2.15;;
55469;SDS011;41334;47.872;16.384;2023-06-14T04:11:22;5.45;;;2.50;;
55469;SDS011;41334;47.872;16.384;2023-06-14T04:16:23;4.88;;;2.03;;
55469;SDS011;41334;47.872;16.384;2023-06-14T04:21:26;5.35;;;2.15;;
55469;SDS011;41334;47.872;16.384;2023-06-14T04:26:34;4.57;;;2.47;;
55469;SDS011;41334;47.872;16.384;2023-06-14T04:31:36;5.97;;;2.22;;
55469;SDS011;41334;47.872;16.384;2023-06-14T04:36:43;3.05;;;1.95;;
55469;SDS011;41334;47.872;16.384;2023-06-14T04:41:51;4.55;;;3.13;;
55469;SDS011;41334;47.872;16.384;2023-06-14T04:46:54;6.18;;;2.10;;
55469;SDS011;41334;47.872;16.384;2023-06-14T04:51:57;4.75;;;2.28;;
55469;SDS011;41334;47.872;16.384;2023-06-14T04:57:05;5.82;;;2.88;;
55469;SDS011;41334;47.872;16.384;2023-06-14T05:02:07;4.22;;;2.55;;
55469;SDS011;41334;47.872;16.384;2023-06-14T05:07:10;5.28;;;3.00;;
55469;SDS011;41334;47.872;16.384;2023-06-14T05:12:12;4.70;;;2.63;;
55469;SDS011;41334;47.872;16.384;2023-06-14T05:17:14;2.88;;;1.77;;
55469;SDS011;41334;47.872;16.384;2023-06-14T05:22:18;3.85;;;2.35;;
55469;SDS011;41334;47.872;16.384;2023-06-14T05:27:20;4.53;;;2.25;;
55469;SDS011;41334;47.872;16.384;2023-06-14T05:32:22;2.85;;;2.03;;
55469;SDS011;41334;47.872;16.384;2023-06-14T05:37:24;4.20;;;2.30;;
55469;SDS011;41334;47.872;16.384;2023-06-14T05:42:25;6.07;;;2.33;;
55469;SDS011;41334;47.872;16.384;2023-06-14T05:47:27;4.10;;;2.58;;
55469;SDS011;41334;47.872;16.384;2023-06-14T05:52:29;4.43;;;2.40;;
55469;SDS011;41334;47.872;16.384;2023-06-14T05:57:31;3.55;;;2.38;;
55469;SDS011;41334;47.872;16.384;2023-06-14T06:02:33;7.07;;;2.50;;
55469;SDS011;41334;47.872;16.384;2023-06-14T06:07:35;6.00;;;3.10;;
55469;SDS011;41334;47.872;16.384;2023-06-14T06:12:38;5.45;;;2.75;;
55469;SDS011;41334;47.872;16.384;2023-06-14T06:17:40;4.20;;;2.38;;
55469;SDS011;41334;47.872;16.384;2023-06-14T06:22:56;4.28;;;2.38;;
55469;SDS011;41334;47.872;16.384;2023-06-14T06:27:58;4.07;;;2.20;;
55469;SDS011;41334;47.872;16.384;2023-06-14T06:33:00;7.53;;;2.50;;
55469;SDS011;41334;47.872;16.384;2023-06-14T06:38:02;4.05;;;2.13;;
55469;SDS011;41334;47.872;16.384;2023-06-14T06:43:04;4.85;;;2.67;;
55469;SDS011;41334;47.872;16.384;2023-06-14T06:48:14;6.88;;;2.10;;
55469;SDS011;41334;47.872;16.384;2023-06-14T06:53:17;2.90;;;1.80;;
55469;SDS011;41334;47.872;16.384;2023-06-14T06:58:35;4.05;;;2.25;;
55469;SDS011;41334;47.872;16.384;2023-06-14T07:03:37;7.40;;;1.95;;
55469;SDS011;41334;47.872;16.384;2023-06-14T07:08:41;2.95;;;1.60;;
55469;SDS011;41334;47.872;16.384;2023-06-14T07:13:43;3.90;;;1.90;;
55469;SDS011;41334;47.872;16.384;2023-06-14T07:18:45;6.95;;;1.40;;
55469;SDS011;41334;47.872;16.384;2023-06-14T07:23:47;4.47;;;1.85;;
55469;SDS011;41334;47.872;16.384;2023-06-14T07:28:49;3.00;;;1.67;;
55469;SDS011;41334;47.872;16.384;2023-06-14T07:33:50;2.45;;;1.50;;
55469;SDS011;41334;47.872;16.384;2023-06-14T07:38:52;4.57;;;1.90;;
55469;SDS011;41334;47.872;16.384;2023-06-14T07:43:54;7.30;;;1.95;;
55469;SDS011;41334;47.872;16.384;2023-06-14T07:48:56;3.83;;;2.20;;
55469;SDS011;41334;47.872;16.384;2023-06-14T07:53:59;4.45;;;2.40;;
55469;SDS011;41334;47.872;16.384;2023-06-14T07:59:02;2.97;;;1.98;;
55469;SDS011;41334;47.872;16.384;2023-06-14T08:04:04;3.25;;;1.75;;
55469;SDS011;41334;47.872;16.384;2023-06-14T08:09:06;2.45;;;1.50;;
55469;SDS011;41334;47.872;16.384;2023-06-14T08:14:08;3.38;;;1.80;;
55469;SDS011;41334;47.872;16.384;2023-06-14T08:19:10;3.67;;;2.00;;
55469;SDS011;41334;47.872;16.384;2023-06-14T08:24:11;4.30;;;1.83;;
55469;SDS011;41334;47.872;16.384;2023-06-14T08:29:14;2.80;;;1.70;;
55469;SDS011;41334;47.872;16.384;2023-06-14T08:34:15;4.07;;;1.75;;
55469;SDS011;41334;47.872;16.384;2023-06-14T08:39:17;3.58;;;1.88;;
55469;SDS011;41334;47.872;16.384;2023-06-14T08:44:20;3.67;;;1.80;;
55469;SDS011;41334;47.872;16.384;2023-06-14T08:49:22;2.90;;;1.80;;
55469;SDS011;41334;47.872;16.384;2023-06-14T08:54:28;3.78;;;2.00;;
55469;SDS011;41334;47.872;16.384;2023-06-14T08:59:31;2.70;;;1.60;;
55469;SDS011;41334;47.872;16.384;2023-06-14T09:04:40;3.58;;;1.90;;
55469;SDS011;41334;47.872;16.384;2023-06-14T09:09:42;3.10;;;1.60;;
55469;SDS011;41334;47.872;16.384;2023-06-14T09:15:05;3.65;;;1.60;;
55469;SDS011;41334;47.872;16.384;2023-06-14T09:20:08;2.58;;;1.80;;
55469;SDS011;41334;47.872;16.384;2023-06-14T09:25:21;3.53;;;1.67;;
55469;SDS011;41334;47.872;16.384;2023-06-14T09:30:40;3.58;;;1.73;;
55469;SDS011;41334;47.872;16.384;2023-06-14T09:35:42;3.05;;;1.85;;
55469;SDS011;41334;47.872;16.384;2023-06-14T09:40:46;2.85;;;1.70;;
55469;SDS011;41334;47.872;16.384;2023-06-14T09:45:48;3.42;;;1.60;;
55469;SDS011;41334;47.872;16.384;2023-06-14T09:50:50;4.03;;;1.65;;
55469;SDS011;41334;47.872;16.384;2023-06-14T09:55:52;6.78;;;1.88;;
55469;SDS011;41334;47.872;16.384;2023-06-14T10:00:54;2.30;;;1.60;;
55469;SDS011;41334;47.872;16.384;2023-06-14T10:05:55;2.20;;;1.30;;
55469;SDS011;41334;47.872;16.384;2023-06-14T10:11:02;2.30;;;1.27;;
55469;SDS011;41334;47.872;16.384;2023-06-14T10:16:10;2.08;;;1.33;;
55469;SDS011;41334;47.872;16.384;2023-06-14T10:21:26;7.05;;;1.50;;
55469;SDS011;41334;47.872;16.384;2023-06-14T10:26:30;3.72;;;1.45;;
55469;SDS011;41334;47.872;16.384;2023-06-14T10:31:42;2.83;;;1.38;;
55469;SDS011;41334;47.872;16.384;2023-06-14T10:36:44;1.92;;;1.30;;
55469;SDS011;41334;47.872;16.384;2023-06-14T10:41:53;2.28;;;1.38;;
55469;SDS011;41334;47.872;16.384;2023-06-14T10:46:56;2.75;;;1.20;;
55469;SDS011;41334;47.872;16.384;2023-06-14T10:51:59;1.60;;;1.17;;
55469;SDS011;41334;47.872;16.384;2023-06-14T10:57:03;2.78;;;1.88;;
55469;SDS011;41334;47.872;16.384;2023-06-14T11:07:19;3.08;;;1.48;;
55469;SDS011;41334;47.872;16.384;2023-06-14T11:12:29;2.20;;;1.42;;
55469;SDS011;41334;47.872;16.384;2023-06-14T11:17:33;3.58;;;1.45;;
55469;SDS011;41334;47.872;16.384;2023-06-14T11:22:41;5.22;;;1.58;;
55469;SDS011;41334;47.872;16.384;2023-06-14T11:27:43;2.92;;;1.30;;
55469;SDS011;41334;47.872;16.384;2023-06-14T11:32:46;2.65;;;1.33;;
55469;SDS011;41334;47.872;16.384;2023-06-14T11:37:48;3.70;;;1.25;;
55469;SDS011;41334;47.872;16.384;2023-06-14T11:42:54;5.55;;;1.27;;
55469;SDS011;41334;47.872;16.384;2023-06-14T11:47:59;5.90;;;1.37;;
55469;SDS011;41334;47.872;16.384;2023-06-14T11:53:01;2.45;;;1.40;;
55469;SDS011;41334;47.872;16.384;2023-06-14T11:58:08;4.32;;;1.60;;
55469;SDS011;41334;47.872;16.384;2023-06-14T12:03:12;2.95;;;1.67;;
55469;SDS011;41334;47.872;16.384;2023-06-14T12:08:14;3.92;;;1.42;;
55469;SDS011;41334;47.872;16.384;2023-06-14T12:13:18;2.72;;;1.40;;
55469;SDS011;41334;47.872;16.384;2023-06-14T12:18:31;3.33;;;1.50;;
55469;SDS011;41334;47.872;16.384;2023-06-14T12:23:46;2.95;;;1.50;;
55469;SDS011;41334;47.872;16.384;2023-06-14T12:28:48;2.85;;;1.33;;
55469;SDS011;41334;47.872;16.384;2023-06-14T12:33:50;5.13;;;1.60;;
55469;SDS011;41334;47.872;16.384;2023-06-14T12:38:52;3.30;;;1.50;;
55469;SDS011;41334;47.872;16.384;2023-06-14T12:43:56;2.30;;;1.40;;
55469;SDS011;41334;47.872;16.384;2023-06-14T12:49:01;3.50;;;1.45;;
55469;SDS011;41334;47.872;16.384;2023-06-14T12:54:03;2.97;;;1.35;;
55469;SDS011;41334;47.872;16.384;2023-06-14T12:59:07;3.95;;;1.25;;
55469;SDS011;41334;47.872;16.384;2023-06-14T13:04:09;2.20;;;1.20;;
55469;SDS011;41334;47.872;16.384;2023-06-14T13:09:11;2.97;;;1.38;;
55469;SDS011;41334;47.872;16.384;2023-06-14T13:14:14;2.10;;;1.40;;
55469;SDS011;41334;47.872;16.384;2023-06-14T13:19:26;1.92;;;1.10;;
55469;SDS011;41334;47.872;16.384;2023-06-14T13:24:28;3.55;;;1.20;;
55469;SDS011;41334;47.872;16.384;2023-06-14T13:29:31;1.90;;;1.30;;
55469;SDS011;41334;47.872;16.384;2023-06-14T13:34:34;3.72;;;1.27;;
55469;SDS011;41334;47.872;16.384;2023-06-14T13:39:36;2.60;;;1.63;;
55469;SDS011;41334;47.872;16.384;2023-06-14T13:44:39;4.20;;;1.80;;
55469;SDS011;41334;47.872;16.384;2023-06-14T13:49:41;2.05;;;1.20;;
55469;SDS011;41334;47.872;16.384;2023-06-14T13:54:42;3.38;;;1.40;;
55469;SDS011;41334;47.872;16.384;2023-06-14T13:59:46;4.35;;;1.58;;
55469;SDS011;41334;47.872;16.384;2023-06-14T14:04:47;4.07;;;1.65;;
55469;SDS011;41334;47.872;16.384;2023-06-14T14:09:55;2.00;;;1.40;;
55469;SDS011;41334;47.872;16.384;2023-06-14T14:14:58;2.28;;;1.33;;
55469;SDS011;41334;47.872;16.384;2023-06-14T14:20:01;3.50;;;1.55;;
55469;SDS011;41334;47.872;16.384;2023-06-14T14:25:02;4.07;;;1.60;;
55469;SDS011;41334;47.872;16.384;2023-06-14T14:30:04;2.55;;;1.38;;
55469;SDS011;41334;47.872;16.384;2023-06-14T14:35:06;3.70;;;1.58;;
55469;SDS011;41334;47.872;16.384;2023-06-14T14:40:08;3.17;;;1.65;;
55469;SDS011;41334;47.872;16.384;2023-06-14T14:45:11;1.52;;;1.00;;
55469;SDS011;41334;47.872;16.384;2023-06-14T14:50:13;2.30;;;1.48;;
55469;SDS011;41334;47.872;16.384;2023-06-14T14:55:15;2.38;;;1.33;;
55469;SDS011;41334;47.872;16.384;2023-06-14T15:00:17;6.10;;;1.33;;
55469;SDS011;41334;47.872;16.384;2023-06-14T15:05:19;2.33;;;1.20;;
55469;SDS011;41334;47.872;16.384;2023-06-14T15:10:21;2.67;;;1.45;;
55469;SDS011;41334;47.872;16.384;2023-06-14T15:15:22;3.47;;;1.25;;
55469;SDS011;41334;47.872;16.384;2023-06-14T15:20:24;2.38;;;1.38;;
55469;SDS011;41334;47.872;16.384;2023-06-14T15:25:26;2.95;;;1.50;;
55469;SDS011;41334;47.872;16.384;2023-06-14T15:30:28;2.15;;;1.42;;
55469;SDS011;41334;47.872;16.384;2023-06-14T15:35:30;3.53;;;1.58;;
55469;SDS011;41334;47.872;16.384;2023-06-14T15:40:32;3.03;;;1.20;;
55469;SDS011;41334;47.872;16.384;2023-06-14T15:45:34;2.17;;;1.40;;
55469;SDS011;41334;47.872;16.384;2023-06-14T15:50:36;2.05;;;1.30;;
55469;SDS011;41334;47.872;16.384;2023-06-14T15:55:37;2.80;;;1.50;;
55469;SDS011;41334;47.872;16.384;2023-06-14T16:00:40;1.77;;;1.15;;
55469;SDS011;41334;47.872;16.384;2023-06-14T16:05:42;3.00;;;1.60;;
55469;SDS011;41334;47.872;16.384;2023-06-14T16:10:44;2.97;;;1.50;;
55469;SDS011;41334;47.872;16.384;2023-06-14T16:15:46;6.63;;;1.33;;
55469;SDS011;41334;47.872;16.384;2023-06-14T16:20:47;4.38;;;1.80;;
55469;SDS011;41334;47.872;16.384;2023-06-14T16:25:49;3.17;;;1.77;;
55469;SDS011;41334;47.872;16.384;2023-06-14T16:30:51;2.45;;;1.40;;
55469;SDS011;41334;47.872;16.384;2023-06-14T16:35:53;1.80;;;1.30;;
55469;SDS011;41334;47.872;16.384;2023-06-14T16:40:55;3.13;;;1.67;;
55469;SDS011;41334;47.872;16.384;2023-06-14T16:45:56;2.78;;;1.48;;
55469;SDS011;41334;47.872;16.384;2023-06-14T16:50:59;2.10;;;1.15;;
55469;SDS011;41334;47.872;16.384;2023-06-14T16:56:00;2.30;;;1.35;;
55469;SDS011;41334;47.872;16.384;2023-06-14T17:01:04;7.80;;;1.60;;
55469;SDS011;41334;47.872;16.384;2023-06-14T17:06:06;1.67;;;1.15;;
55469;SDS011;41334;47.872;16.384;2023-06-14T17:11:08;2.08;;;1.30;;
55469;SDS011;41334;47.872;16.384;2023-06-14T17:16:10;2.38;;;1.30;;
55469;SDS011;41334;47.872;16.384;2023-06-14T17:21:14;2.75;;;1.23;;
55469;SDS011;41334;47.872;16.384;2023-06-14T17:26:16;1.67;;;1.10;;
55469;SDS011;41334;47.872;16.384;2023-06-14T17:31:17;2.85;;;1.48;;
55469;SDS011;41334;47.872;16.384;2023-06-14T17:36:19;2.20;;;1.45;;
55469;SDS011;41334;47.872;16.384;2023-06-14T17:41:21;5.53;;;1.42;;
55469;SDS011;41334;47.872;16.384;2023-06-14T17:46:25;3.60;;;1.27;;
55469;SDS011;41334;47.872;16.384;2023-06-14T17:51:27;4.53;;;1.63;;
55469;SDS011;41334;47.872;16.384;2023-06-14T17:56:29;2.80;;;1.20;;
55469;SDS011;41334;47.872;16.384;2023-06-14T18:01:30;4.03;;;1.35;;
55469;SDS011;41334;47.872;16.384;2023-06-14T18:06:33;3.55;;;1.60;;
55469;SDS011;41334;47.872;16.384;2023-06-14T18:11:35;4.30;;;1.60;;
55469;SDS011;41334;47.872;16.384;2023-06-14T18:16:37;2.75;;;1.77;;
55469;SDS011;41334;47.872;16.384;2023-06-14T18:21:41;2.70;;;1.52;;
55469;SDS011;41334;47.872;16.384;2023-06-14T18:26:59;6.85;;;1.60;;
55469;SDS011;41334;47.872;16.384;2023-06-14T18:32:02;2.92;;;1.40;;
55469;SDS011;41334;47.872;16.384;2023-06-14T18:37:04;4.72;;;1.90;;
55469;SDS011;41334;47.872;16.384;2023-06-14T18:42:06;5.97;;;2.10;;
55469;SDS011;41334;47.872;16.384;2023-06-14T18:47:09;5.30;;;2.05;;
55469;SDS011;41334;47.872;16.384;2023-06-14T18:52:12;3.20;;;2.05;;
55469;SDS011;41334;47.872;16.384;2023-06-14T18:57:14;5.25;;;2.08;;
55469;SDS011;41334;47.872;16.384;2023-06-14T19:02:16;3.50;;;2.00;;
55469;SDS011;41334;47.872;16.384;2023-06-14T19:07:18;3.63;;;2.05;;
55469;SDS011;41334;47.872;16.384;2023-06-14T19:12:19;3.25;;;1.92;;
55469;SDS011;41334;47.872;16.384;2023-06-14T19:17:21;5.85;;;2.00;;
55469;SDS011;41334;47.872;16.384;2023-06-14T19:22:23;5.47;;;2.05;;
55469;SDS011;41334;47.872;16.384;2023-06-14T19:27:25;4.97;;;1.90;;
55469;SDS011;41334;47.872;16.384;2023-06-14T19:32:27;3.92;;;2.30;;
55469;SDS011;41334;47.872;16.384;2023-06-14T19:37:29;5.78;;;2.10;;
55469;SDS011;41334;47.872;16.384;2023-06-14T19:42:32;3.50;;;1.95;;
55469;SDS011;41334;47.872;16.384;2023-06-14T19:47:34;3.65;;;2.15;;
55469;SDS011;41334;47.872;16.384;2023-06-14T19:52:36;4.72;;;2.05;;
55469;SDS011;41334;47.872;16.384;2023-06-14T19:57:38;3.78;;;2.00;;
55469;SDS011;41334;47.872;16.384;2023-06-14T20:02:39;5.72;;;2.30;;
55469;SDS011;41334;47.872;16.384;2023-06-14T20:07:41;6.78;;;2.00;;
55469;SDS011;41334;47.872;16.384;2023-06-14T20:12:43;7.05;;;2.00;;
55469;SDS011;41334;47.872;16.384;2023-06-14T20:17:45;4.53;;;1.75;;
55469;SDS011;41334;47.872;16.384;2023-06-14T20:22:47;5.20;;;2.50;;
55469;SDS011;41334;47.872;16.384;2023-06-14T20:27:49;3.28;;;2.15;;
55469;SDS011;41334;47.872;16.384;2023-06-14T20:32:51;4.13;;;2.00;;
55469;SDS011;41334;47.872;16.384;2023-06-14T20:37:53;4.70;;;2.60;;
55469;SDS011;41334;47.872;16.384;2023-06-14T20:42:54;3.83;;;2.38;;
55469;SDS011;41334;47.872;16.384;2023-06-14T20:47:58;5.72;;;2.35;;
55469;SDS011;41334;47.872;16.384;2023-06-14T20:53:01;6.05;;;2.90;;
55469;SDS011;41334;47.872;16.384;2023-06-14T20:58:03;11.65;;;2.55;;
55469;SDS011;41334;47.872;16.384;2023-06-14T21:03:05;5.07;;;2.63;;
55469;SDS011;41334;47.872;16.384;2023-06-14T21:08:08;5.03;;;3.10;;
55469;SDS011;41334;47.872;16.384;2023-06-14T21:13:10;4.28;;;2.30;;
55469;SDS011;41334;47.872;16.384;2023-06-14T21:18:12;4.38;;;2.45;;
55469;SDS011;41334;47.872;16.384;2023-06-14T21:23:14;9.43;;;2.40;;
55469;SDS011;41334;47.872;16.384;2023-06-14T21:28:16;5.13;;;2.55;;
55469;SDS011;41334;47.872;16.384;2023-06-14T21:33:18;4.40;;;2.35;;
55469;SDS011;41334;47.872;16.384;2023-06-14T21:38:20;5.38;;;2.63;;
55469;SDS011;41334;47.872;16.384;2023-06-14T21:43:23;4.88;;;2.67;;
55469;SDS011;41334;47.872;16.384;2023-06-14T21:48:24;4.22;;;2.63;;
55469;SDS011;41334;47.872;16.384;2023-06-14T21:53:26;4.40;;;2.63;;
55469;SDS011;41334;47.872;16.384;2023-06-14T21:58:29;10.57;;;2.72;;
55469;SDS011;41334;47.872;16.384;2023-06-14T22:03:31;6.22;;;3.30;;
55469;SDS011;41334;47.872;16.384;2023-06-14T22:08:34;4.47;;;2.63;;
55469;SDS011;41334;47.872;16.384;2023-06-14T22:13:36;4.53;;;2.47;;
55469;SDS011;41334;47.872;16.384;2023-06-14T22:18:39;5.22;;;2.78;;
55469;SDS011;41334;47.872;16.384;2023-06-14T22:23:43;4.30;;;2.50;;
55469;SDS011;41334;47.872;16.384;2023-06-14T22:28:45;3.83;;;2.38;;
55469;SDS011;41334;47.872;16.384;2023-06-14T22:33:50;3.95;;;2.45;;
55469;SDS011;41334;47.872;16.384;2023-06-14T22:38:52;3.05;;;2.15;;
55469;SDS011;41334;47.872;16.384;2023-06-14T22:43:54;6.00;;;2.40;;
55469;SDS011;41334;47.872;16.384;2023-06-14T22:48:56;4.53;;;2.42;;
55469;SDS011;41334;47.872;16.384;2023-06-14T22:53:59;4.82;;;2.17;;
55469;SDS011;41334;47.872;16.384;2023-06-14T22:59:01;4.15;;;2.42;;
55469;SDS011;41334;47.872;16.384;2023-06-14T23:04:04;4.90;;;2.70;;
55469;SDS011;41334;47.872;16.384;2023-06-14T23:09:07;4.53;;;2.50;;
55469;SDS011;41334;47.872;16.384;2023-06-14T23:14:10;3.85;;;2.13;;
55469;SDS011;41334;47.872;16.384;2023-06-14T23:19:12;5.55;;;2.60;;
55469;SDS011;41334;47.872;16.384;2023-06-14T23:24:15;4.80;;;2.33;;
55469;SDS011;41334;47.872;16.384;2023-06-14T23:29:21;4.90;;;2.63;;
55469;SDS011;41334;47.872;16.384;2023-06-14T23:34:24;3.60;;;2.30;;
55469;SDS011;41334;47.872;16.384;2023-06-14T23:39:27;5.50;;;2.80;;
55469;SDS011;41334;47.872;16.384;2023-06-14T23:44:29;2.83;;;1.73;;
55469;SDS011;41334;47.872;16.384;2023-06-14T23:49:38;4.97;;;2.15;;
55469;SDS011;41334;47.872;16.384;2023-06-14T23:54:40;3.45;;;2.08;;
55469;SDS011;41334;47.872;16.384;2023-06-14T23:59:43;5.15;;;2.50;;
